createdAt,value
2022-08-28T00:01:35.273Z,100325.39
2022-08-28T00:04:08.239Z,100322.80
2022-08-28T00:06:40.109Z,100325.24
2022-08-28T00:09:13.164Z,100328.82
2022-08-28T00:11:44.964Z,100331.93
2022-08-28T00:14:21.644Z,100337.27
2022-08-28T00:16:54.715Z,100337.84
2022-08-28T00:19:26.760Z,100336.38
2022-08-28T00:21:58.560Z,100339.45
2022-08-28T00:24:30.623Z,100338.31
2022-08-28T00:27:20.405Z,100340.00
2022-08-28T00:29:52.376Z,100339.52
2022-08-28T00:32:25.342Z,100337.63
2022-08-28T00:34:58.809Z,100335.13
2022-08-28T00:37:30.854Z,100334.40
2022-08-28T00:40:02.754Z,100328.79
2022-08-28T00:42:39.384Z,100324.89
2022-08-28T00:45:15.489Z,100327.60
2022-08-28T00:47:47.653Z,100324.69
2022-08-28T00:50:25.564Z,100322.98
2022-08-28T00:53:01.845Z,100319.60
2022-08-28T00:55:33.817Z,100314.52
2022-08-28T00:58:06.958Z,100313.77
2022-08-28T01:00:42.885Z,100314.50
2022-08-28T01:03:14.833Z,100315.08
2022-08-28T01:05:49.395Z,100312.96
2022-08-28T01:08:21.373Z,100306.48
2022-08-28T01:10:59.730Z,100306.10
2022-08-28T01:13:32.633Z,100309.36
2022-08-28T01:16:06.715Z,100311.70
2022-08-28T01:18:39.466Z,100312.91
2022-08-28T01:21:20.834Z,100309.75
2022-08-28T01:23:58.951Z,100310.27
2022-08-28T01:26:32.383Z,100309.20
2022-08-28T01:29:05.020Z,100311.92
2022-08-28T01:31:40.703Z,100310.46
2022-08-28T01:34:14.121Z,100310.83
2022-08-28T01:36:47.844Z,100312.19
2022-08-28T01:39:23.630Z,100318.05
2022-08-28T01:41:58.805Z,100320.67
2022-08-28T01:44:31.379Z,100319.41
2022-08-28T01:47:03.492Z,100316.05
2022-08-28T01:49:35.421Z,100321.73
2022-08-28T01:52:11.776Z,100323.73
2022-08-28T01:54:43.687Z,100323.10
2022-08-28T01:57:15.600Z,100325.16
2022-08-28T01:59:49.510Z,100325.18
2022-08-28T02:02:22.495Z,100326.49
2022-08-28T02:04:54.582Z,100325.98
2022-08-28T02:07:26.525Z,100324.95
2022-08-28T02:09:58.494Z,100323.44
2022-08-28T02:12:32.825Z,100322.45
2022-08-28T02:15:05.040Z,100326.21
2022-08-28T02:17:37.250Z,100324.70
2022-08-28T02:20:10.516Z,100325.90
2022-08-28T02:22:49.382Z,100326.65
2022-08-28T02:25:21.413Z,100323.73
2022-08-28T02:27:53.427Z,100322.44
2022-08-28T02:30:27.489Z,100316.77
2022-08-28T02:33:01.870Z,100317.80
2022-08-28T02:35:34.310Z,100314.91
2022-08-28T02:38:06.382Z,100315.21
2022-08-28T02:40:38.366Z,100316.56
2022-08-28T02:43:12.192Z,100316.68
2022-08-28T02:45:43.977Z,100317.52
2022-08-28T02:48:17.431Z,100314.51
2022-08-28T02:50:49.928Z,100316.69
2022-08-28T02:53:25.110Z,100316.08
2022-08-28T02:55:57.398Z,100317.67
2022-08-28T02:58:30.102Z,100319.48
2022-08-28T03:01:02.734Z,100321.82
2022-08-28T03:03:37.388Z,100320.45
2022-08-28T03:06:13.828Z,100324.48
2022-08-28T03:08:46.343Z,100327.32
2022-08-28T03:11:18.225Z,100331.50
2022-08-28T03:13:50.879Z,100330.05
2022-08-28T03:16:22.909Z,100329.23
2022-08-28T03:18:54.910Z,100328.27
2022-08-28T03:21:27.258Z,100327.89
2022-08-28T03:24:00.793Z,100328.45
2022-08-28T03:26:32.856Z,100325.94
2022-08-28T03:29:04.791Z,100324.38
2022-08-28T03:31:36.656Z,100323.62
2022-08-28T03:34:09.805Z,100325.02
2022-08-28T03:36:41.596Z,100325.23
2022-08-28T03:39:13.980Z,100323.13
2022-08-28T03:41:45.814Z,100324.96
2022-08-28T03:44:20.254Z,100326.09
2022-08-28T03:46:52.110Z,100326.09
2022-08-28T03:49:24.727Z,100330.63
2022-08-28T03:51:56.585Z,100337.55
2022-08-28T03:54:32.165Z,100339.73
2022-08-28T03:57:04.027Z,100342.23
2022-08-28T03:59:36.488Z,100342.14
2022-08-28T04:02:08.224Z,100336.79
2022-08-28T04:04:40.494Z,100339.83
2022-08-28T04:07:12.336Z,100337.42
2022-08-28T04:09:44.255Z,100338.02
2022-08-28T04:12:16.425Z,100338.98
2022-08-28T04:14:48.210Z,100345.11
2022-08-28T04:17:20.123Z,100345.95
2022-08-28T04:19:55.210Z,100352.39
2022-08-28T04:22:27.626Z,100352.86
2022-08-28T04:25:00.408Z,100350.29
2022-08-28T04:27:32.294Z,100350.77
2022-08-28T04:30:09.862Z,100347.04
2022-08-28T04:32:42.160Z,100351.95
2022-08-28T04:35:17.529Z,100353.95
2022-08-28T04:37:50.269Z,100359.55
2022-08-28T04:40:28.518Z,100355.59
2022-08-28T04:43:00.372Z,100349.17
2022-08-28T04:45:32.283Z,100349.21
2022-08-28T04:48:05.484Z,100351.02
2022-08-28T04:50:47.819Z,100354.10
2022-08-28T04:53:21.566Z,100358.36
2022-08-28T04:55:55.334Z,100354.86
2022-08-28T04:58:27.534Z,100358.17
2022-08-28T05:01:01.490Z,100358.94
2022-08-28T05:03:33.665Z,100360.29
2022-08-28T05:06:06.683Z,100359.91
2022-08-28T05:08:38.662Z,100359.08
2022-08-28T05:11:30.714Z,100364.23
2022-08-28T05:14:08.350Z,100363.08
2022-08-28T05:16:46.048Z,100360.13
2022-08-28T05:19:19.444Z,100358.88
2022-08-28T05:21:53.778Z,100359.67
2022-08-28T05:24:25.554Z,100358.89
2022-08-28T05:26:57.787Z,100358.58
2022-08-28T05:29:29.930Z,100359.17
2022-08-28T05:32:02.708Z,100360.06
2022-08-28T05:34:35.233Z,100362.02
2022-08-28T05:37:09.065Z,100360.58
2022-08-28T05:39:40.915Z,100358.23
2022-08-28T05:42:13.795Z,100360.21
2022-08-28T05:44:45.732Z,100363.79
2022-08-28T05:47:18.238Z,100362.92
2022-08-28T05:49:53.674Z,100360.54
2022-08-28T05:52:25.442Z,100363.09
2022-08-28T05:54:57.356Z,100365.29
2022-08-28T05:57:30.289Z,100366.83
2022-08-28T06:00:02.392Z,100371.41
2022-08-28T06:02:35.235Z,100377.03
2022-08-28T06:05:08.147Z,100381.17
2022-08-28T06:07:41.143Z,100383.47
2022-08-28T06:10:13.503Z,100383.61
2022-08-28T06:12:46.738Z,100386.16
2022-08-28T06:15:19.006Z,100387.21
2022-08-28T06:17:50.826Z,100385.70
2022-08-28T06:20:23.330Z,100390.45
2022-08-28T06:22:58.624Z,100386.80
2022-08-28T06:25:31.292Z,100389.95
2022-08-28T06:28:04.650Z,100389.02
2022-08-28T06:30:40.042Z,100392.07
2022-08-28T06:33:16.487Z,100392.93
2022-08-28T06:35:53.951Z,100393.58
2022-08-28T06:38:31.634Z,100394.00
2022-08-28T06:41:03.423Z,100391.60
2022-08-28T06:43:36.116Z,100392.69
2022-08-28T06:46:08.755Z,100394.13
2022-08-28T06:48:40.864Z,100396.98
2022-08-28T06:51:14.873Z,100396.08
2022-08-28T06:53:48.039Z,100397.59
2022-08-28T06:56:26.865Z,100395.92
2022-08-28T06:59:00.671Z,100397.46
2022-08-28T07:01:34.951Z,100401.14
2022-08-28T07:04:10.442Z,100399.75
2022-08-28T07:06:46.830Z,100399.74
2022-08-28T07:09:19.286Z,100406.64
2022-08-28T07:11:51.202Z,100405.46
2022-08-28T07:14:23.389Z,100410.72
2022-08-28T07:16:57.830Z,100407.13
2022-08-28T07:19:29.863Z,100408.04
2022-08-28T07:22:02.639Z,100403.25
2022-08-28T07:24:34.801Z,100408.61
2022-08-28T07:27:07.005Z,100411.00
2022-08-28T07:29:39.594Z,100411.37
2022-08-28T07:32:11.875Z,100412.21
2022-08-28T07:34:43.972Z,100413.24
2022-08-28T07:37:15.997Z,100409.09
2022-08-28T07:39:47.843Z,100409.48
2022-08-28T07:42:35.681Z,100411.35
2022-08-28T07:45:09.610Z,100413.77
2022-08-28T07:47:43.211Z,100412.61
2022-08-28T07:50:22.859Z,100417.04
2022-08-28T07:52:54.960Z,100417.96
2022-08-28T07:55:29.792Z,100419.48
2022-08-28T07:58:02.411Z,100417.11
2022-08-28T08:00:37.594Z,100424.30
2022-08-28T08:03:09.549Z,100420.75
2022-08-28T08:05:41.662Z,100424.44
2022-08-28T08:08:13.684Z,100422.58
2022-08-28T08:10:47.442Z,100423.39
2022-08-28T08:13:19.559Z,100426.96
2022-08-28T08:15:51.434Z,100429.18
2022-08-28T08:18:23.404Z,100431.34
2022-08-28T08:20:57.803Z,100438.02
2022-08-28T08:23:29.981Z,100437.86
2022-08-28T08:26:03.948Z,100439.77
2022-08-28T08:28:37.724Z,100443.99
2022-08-28T08:31:12.925Z,100447.77
2022-08-28T08:33:47.886Z,100448.89
2022-08-28T08:36:22.269Z,100447.02
2022-08-28T08:38:59.165Z,100449.61
2022-08-28T08:41:35.866Z,100450.20
2022-08-28T08:44:33.270Z,100454.58
2022-08-28T08:47:14.793Z,100454.30
2022-08-28T08:49:55.741Z,100459.59
2022-08-28T08:52:44.091Z,100457.15
2022-08-28T08:55:31.658Z,100460.73
2022-08-28T08:58:07.763Z,100458.74
2022-08-28T09:00:51.669Z,100459.45
2022-08-28T09:03:27.061Z,100462.05
2022-08-28T09:06:03.390Z,100460.36
2022-08-28T09:08:42.496Z,100461.69
2022-08-28T09:11:24.141Z,100464.41
2022-08-28T09:14:04.201Z,100470.94
2022-08-28T09:16:42.853Z,100473.39
2022-08-28T09:19:19.838Z,100476.13
2022-08-28T09:21:54.854Z,100479.71
2022-08-28T09:24:32.036Z,100478.96
2022-08-28T09:27:08.951Z,100479.79
2022-08-28T09:29:44.412Z,100478.41
2022-08-28T09:32:27.109Z,100483.70
2022-08-28T09:35:15.167Z,100484.38
2022-08-28T09:37:47.638Z,100483.60
2022-08-28T09:40:29.680Z,100485.85
2022-08-28T09:43:25.636Z,100483.48
2022-08-28T09:46:01.865Z,100485.45
2022-08-28T09:48:39.494Z,100485.41
2022-08-28T09:51:14.509Z,100489.40
2022-08-28T09:54:03.099Z,100491.41
2022-08-28T09:56:36.951Z,100486.27
2022-08-28T09:59:13.352Z,100490.88
2022-08-28T10:02:01.905Z,100494.30
2022-08-28T10:04:57.748Z,100492.94
2022-08-28T10:07:39.478Z,100494.77
2022-08-28T10:10:29.910Z,100493.20
2022-08-28T10:13:07.656Z,100494.73
2022-08-28T10:15:55.364Z,100488.23
2022-08-28T10:18:38.479Z,100490.52
2022-08-28T10:21:19.976Z,100497.23
2022-08-28T10:24:30.537Z,100499.71
2022-08-28T10:27:05.423Z,100498.27
2022-08-28T10:29:49.702Z,100498.08
2022-08-28T10:32:49.193Z,100500.05
2022-08-28T10:35:25.590Z,100498.09
2022-08-28T10:38:06.802Z,100499.25
2022-08-28T10:40:52.443Z,100497.91
2022-08-28T10:43:34.277Z,100501.36
2022-08-28T10:46:13.584Z,100504.94
2022-08-28T10:48:48.927Z,100507.64
2022-08-28T10:51:34.708Z,100511.20
2022-08-28T10:54:13.752Z,100514.21
2022-08-28T10:56:56.572Z,100517.36
2022-08-28T10:59:31.956Z,100514.72
2022-08-28T11:02:06.534Z,100514.27
2022-08-28T11:04:38.559Z,100514.18
2022-08-28T11:07:14.670Z,100516.63
2022-08-28T11:09:49.474Z,100524.75
2022-08-28T11:12:39.080Z,100518.32
2022-08-28T11:15:43.400Z,100520.84
2022-08-28T11:18:41.460Z,100525.91
2022-08-28T11:21:20.107Z,100525.52
2022-08-28T11:23:59.195Z,100530.49
2022-08-28T11:26:39.152Z,100531.35
2022-08-28T11:29:10.989Z,100531.27
2022-08-28T11:31:43.518Z,100536.52
2022-08-28T11:34:45.886Z,100539.25
2022-08-28T11:37:42.787Z,100540.18
2022-08-28T11:40:23.816Z,100543.41
2022-08-28T11:43:16.187Z,100547.54
2022-08-28T11:46:12.981Z,100548.46
2022-08-28T11:48:52.275Z,100549.37
2022-08-28T11:51:56.069Z,100557.98
2022-08-28T11:54:48.559Z,100562.16
2022-08-28T11:57:24.816Z,100564.66
2022-08-28T12:00:11.710Z,100566.00
2022-08-28T12:03:10.127Z,100568.71
2022-08-28T12:05:48.824Z,100567.69
2022-08-28T12:09:12.921Z,100572.70
2022-08-28T12:11:59.778Z,100570.93
2022-08-28T12:15:02.473Z,100568.06
2022-08-28T12:18:00.755Z,100576.49
2022-08-28T12:20:40.712Z,100579.43
2022-08-28T12:23:40.888Z,100578.15
2022-08-28T12:26:23.803Z,100583.66
2022-08-28T12:28:58.279Z,100585.89
2022-08-28T12:32:13.052Z,100586.50
2022-08-28T12:34:51.328Z,100590.55
2022-08-28T12:37:36.809Z,100588.68
2022-08-28T12:40:29.685Z,100590.89
2022-08-28T12:43:04.716Z,100589.87
2022-08-28T12:45:41.011Z,100587.19
2022-08-28T12:48:23.242Z,100587.88
2022-08-28T12:51:03.184Z,100591.92
2022-08-28T12:53:45.295Z,100595.77
2022-08-28T12:56:19.954Z,100598.80
2022-08-28T12:58:52.778Z,100602.21
2022-08-28T13:01:32.133Z,100604.05
2022-08-28T13:04:06.356Z,100603.35
2022-08-28T13:06:40.155Z,100605.64
2022-08-28T13:09:20.458Z,100602.43
2022-08-28T13:11:53.798Z,100601.88
2022-08-28T13:14:41.991Z,100602.73
2022-08-28T13:17:15.681Z,100598.84
2022-08-28T13:20:02.486Z,100605.77
2022-08-28T13:22:41.959Z,100602.46
2022-08-28T13:25:26.773Z,100602.98
2022-08-28T13:28:01.600Z,100602.24
2022-08-28T13:30:36.717Z,100601.10
2022-08-28T13:33:21.833Z,100601.12
2022-08-28T13:35:55.277Z,100599.56
2022-08-28T13:38:27.502Z,100600.27
2022-08-28T13:41:03.999Z,100602.13
2022-08-28T13:43:47.489Z,100601.88
2022-08-28T13:46:20.225Z,100600.48
2022-08-28T13:48:52.181Z,100603.05
2022-08-28T13:51:26.575Z,100605.14
2022-08-28T13:53:58.682Z,100610.65
2022-08-28T13:56:32.839Z,100608.16
2022-08-28T13:59:05.602Z,100607.05
2022-08-28T14:01:55.333Z,100609.57
2022-08-28T14:04:27.702Z,100608.45
2022-08-28T14:06:59.798Z,100612.88
2022-08-28T14:09:31.721Z,100617.12
2022-08-28T14:12:04.007Z,100615.84
2022-08-28T14:14:36.057Z,100613.02
2022-08-28T14:17:09.915Z,100618.01
2022-08-28T14:19:41.863Z,100618.56
2022-08-28T14:22:15.331Z,100620.19
2022-08-28T14:24:47.325Z,100621.13
2022-08-28T14:27:19.355Z,100621.84
2022-08-28T14:30:06.373Z,100626.65
2022-08-28T14:32:40.304Z,100628.60
2022-08-28T14:35:12.850Z,100627.46
2022-08-28T14:37:45.138Z,100630.98
2022-08-28T14:40:17.394Z,100627.33
2022-08-28T14:42:58.432Z,100622.59
2022-08-28T14:45:30.378Z,100624.88
2022-08-28T14:48:02.365Z,100622.60
2022-08-28T14:50:34.132Z,100622.70
2022-08-28T14:53:06.478Z,100623.42
2022-08-28T14:55:44.342Z,100625.52
2022-08-28T14:58:17.899Z,100627.27
2022-08-28T15:00:51.582Z,100625.73
2022-08-28T15:03:23.519Z,100626.14
2022-08-28T15:06:04.859Z,100628.38
2022-08-28T15:08:38.276Z,100623.66
2022-08-28T15:11:14.242Z,100627.02
2022-08-28T15:13:52.506Z,100628.44
2022-08-28T15:16:29.847Z,100628.48
2022-08-28T15:19:04.317Z,100626.29
2022-08-28T15:21:38.485Z,100625.59
2022-08-28T15:24:11.565Z,100623.77
2022-08-28T15:26:43.836Z,100623.38
2022-08-28T15:29:15.796Z,100625.52
2022-08-28T15:31:50.226Z,100623.23
2022-08-28T15:34:24.355Z,100623.86
2022-08-28T15:36:57.693Z,100626.11
2022-08-28T15:39:47.948Z,100630.02
2022-08-28T15:42:20.052Z,100626.11
2022-08-28T15:44:52.034Z,100625.17
2022-08-28T15:47:23.877Z,100626.23
2022-08-28T15:49:58.620Z,100625.66
2022-08-28T15:52:30.547Z,100627.74
2022-08-28T15:55:02.777Z,100624.89
2022-08-28T15:57:34.690Z,100629.86
2022-08-28T16:00:17.060Z,100631.27
2022-08-28T16:02:49.203Z,100628.98
2022-08-28T16:05:21.161Z,100632.27
2022-08-28T16:07:53.013Z,100630.10
2022-08-28T16:10:29.196Z,100630.41
2022-08-28T16:13:01.235Z,100632.11
2022-08-28T16:15:33.118Z,100633.23
2022-08-28T16:18:08.958Z,100632.87
2022-08-28T16:20:43.005Z,100637.55
2022-08-28T16:23:15.455Z,100637.48
2022-08-28T16:25:47.568Z,100635.30
2022-08-28T16:28:19.596Z,100635.73
2022-08-28T16:30:52.562Z,100639.77
2022-08-28T16:33:26.594Z,100636.06
2022-08-28T16:35:59.103Z,100634.45
2022-08-28T16:38:31.083Z,100633.52
2022-08-28T16:41:03.966Z,100629.36
2022-08-28T16:43:35.755Z,100632.83
2022-08-28T16:46:12.704Z,100637.09
2022-08-28T16:48:45.347Z,100640.16
2022-08-28T16:51:18.752Z,100641.83
2022-08-28T16:53:51.553Z,100637.58
2022-08-28T16:56:24.643Z,100637.22
2022-08-28T16:58:57.168Z,100641.78
2022-08-28T17:01:29.398Z,100639.37
2022-08-28T17:04:01.852Z,100640.63
2022-08-28T17:06:35.663Z,100640.55
2022-08-28T17:09:07.561Z,100642.48
2022-08-28T17:11:39.751Z,100641.33
2022-08-28T17:14:12.185Z,100639.38
2022-08-28T17:16:47.499Z,100643.39
2022-08-28T17:19:24.938Z,100644.35
2022-08-28T17:22:15.139Z,100642.32
2022-08-28T17:24:47.118Z,100649.45
2022-08-28T17:27:22.648Z,100651.21
2022-08-28T17:29:54.787Z,100650.92
2022-08-28T17:32:26.999Z,100649.20
2022-08-28T17:34:58.757Z,100651.67
2022-08-28T17:37:31.758Z,100655.48
2022-08-28T17:40:03.980Z,100653.46
2022-08-28T17:42:38.890Z,100654.83
2022-08-28T17:45:15.503Z,100656.20
2022-08-28T17:47:47.446Z,100650.48
2022-08-28T17:50:20.265Z,100652.74
2022-08-28T17:52:54.830Z,100653.02
2022-08-28T17:55:26.746Z,100650.05
2022-08-28T17:57:59.110Z,100652.84
2022-08-28T18:00:31.513Z,100655.88
2022-08-28T18:03:03.875Z,100658.44
2022-08-28T18:05:37.118Z,100654.86
2022-08-28T18:08:10.248Z,100655.42
2022-08-28T18:10:42.319Z,100661.14
2022-08-28T18:13:15.210Z,100662.80
2022-08-28T18:15:56.553Z,100663.52
2022-08-28T18:18:36.389Z,100668.52
2022-08-28T18:21:09.913Z,100668.52
2022-08-28T18:23:42.278Z,100668.91
2022-08-28T18:26:14.549Z,100672.91
2022-08-28T18:28:46.553Z,100673.29
2022-08-28T18:31:19.807Z,100674.86
2022-08-28T18:33:55.990Z,100678.41
2022-08-28T18:36:27.271Z,100681.38
2022-08-28T18:38:59.520Z,100683.04
2022-08-28T18:41:44.000Z,100682.73
2022-08-28T18:44:23.670Z,100687.42
2022-08-28T18:46:56.386Z,100692.62
2022-08-28T18:49:29.064Z,100693.63
2022-08-28T18:52:01.075Z,100694.84
2022-08-28T18:54:33.432Z,100700.75
2022-08-28T18:57:05.719Z,100704.48
2022-08-28T18:59:38.023Z,100703.27
2022-08-28T19:02:10.231Z,100707.02
2022-08-28T19:04:44.721Z,100703.44
2022-08-28T19:07:17.373Z,100705.53
2022-08-28T19:09:49.442Z,100701.38
2022-08-28T19:12:21.487Z,100705.25
2022-08-28T19:14:57.787Z,100714.68
2022-08-28T19:17:30.892Z,100717.52
2022-08-28T19:20:25.904Z,100721.84
2022-08-28T19:22:58.785Z,100723.27
2022-08-28T19:25:32.607Z,100728.57
2022-08-28T19:28:06.687Z,100734.66
2022-08-28T19:30:40.036Z,100731.67
2022-08-28T19:33:12.787Z,100734.44
2022-08-28T19:35:46.211Z,100733.50
2022-08-28T19:38:18.390Z,100736.65
2022-08-28T19:40:52.148Z,100738.02
2022-08-28T19:43:24.184Z,100746.36
2022-08-28T19:46:14.448Z,100742.74
2022-08-28T19:48:53.547Z,100747.39
2022-08-28T19:51:27.287Z,100749.67
2022-08-28T19:53:59.441Z,100753.21
2022-08-28T19:56:34.569Z,100758.95
2022-08-28T19:59:09.015Z,100758.31
2022-08-28T20:01:44.946Z,100759.79
2022-08-28T20:04:17.899Z,100758.84
2022-08-28T20:06:50.187Z,100762.61
2022-08-28T20:09:22.190Z,100768.40
2022-08-28T20:11:54.014Z,100771.69
2022-08-28T20:14:27.606Z,100776.70
2022-08-28T20:17:00.949Z,100778.73
2022-08-28T20:19:33.529Z,100775.72
2022-08-28T20:22:06.299Z,100777.75
2022-08-28T20:24:39.316Z,100778.45
2022-08-28T20:27:11.734Z,100782.18
2022-08-28T20:29:43.783Z,100784.38
2022-08-28T20:32:16.705Z,100790.25
2022-08-28T20:34:48.694Z,100791.35
2022-08-28T20:37:20.923Z,100791.48
2022-08-28T20:39:56.908Z,100792.73
2022-08-28T20:42:31.983Z,100793.91
2022-08-28T20:45:05.500Z,100800.23
2022-08-28T20:47:37.734Z,100802.48
2022-08-28T20:50:11.469Z,100800.34
2022-08-28T20:52:49.310Z,100802.73
2022-08-28T20:55:21.298Z,100803.68
2022-08-28T20:57:55.889Z,100803.65
2022-08-28T21:00:31.641Z,100803.83
2022-08-28T21:03:04.598Z,100803.63
2022-08-28T21:05:36.415Z,100810.36
2022-08-28T21:08:08.846Z,100808.61
2022-08-28T21:10:46.191Z,100813.79
2022-08-28T21:13:18.379Z,100818.41
2022-08-28T21:15:50.322Z,100816.60
2022-08-28T21:18:22.204Z,100817.45
2022-08-28T21:20:55.684Z,100815.61
2022-08-28T21:23:28.589Z,100825.96
2022-08-28T21:26:00.598Z,100828.52
2022-08-28T21:28:32.554Z,100827.63
2022-08-28T21:31:08.984Z,100830.96
2022-08-28T21:33:41.308Z,100830.53
2022-08-28T21:36:16.362Z,100834.18
2022-08-28T21:38:48.286Z,100835.64
2022-08-28T21:41:20.195Z,100833.20
2022-08-28T21:43:56.975Z,100836.89
2022-08-28T21:46:29.235Z,100833.98
2022-08-28T21:49:01.376Z,100839.14
2022-08-28T21:51:33.312Z,100837.12
2022-08-28T21:54:05.573Z,100840.55
2022-08-28T21:56:37.542Z,100841.70
2022-08-28T21:59:09.607Z,100839.78
2022-08-28T22:01:41.599Z,100842.90
2022-08-28T22:04:14.476Z,100843.50
2022-08-28T22:06:46.271Z,100840.89
2022-08-28T22:09:18.592Z,100838.91
2022-08-28T22:11:50.545Z,100841.39
2022-08-28T22:14:25.270Z,100842.01
2022-08-28T22:16:57.288Z,100843.98
2022-08-28T22:19:29.272Z,100841.53
2022-08-28T22:22:18.893Z,100840.72
2022-08-28T22:24:50.843Z,100841.02
2022-08-28T22:27:23.154Z,100833.98
2022-08-28T22:29:55.277Z,100834.98
2022-08-28T22:32:27.971Z,100828.25
2022-08-28T22:35:00.656Z,100830.14
2022-08-28T22:37:32.579Z,100832.90
2022-08-28T22:40:13.289Z,100837.00
2022-08-28T22:42:45.580Z,100837.65
2022-08-28T22:45:17.811Z,100839.14
2022-08-28T22:47:50.288Z,100835.56
2022-08-28T22:50:28.982Z,100834.36
2022-08-28T22:53:02.725Z,100834.42
2022-08-28T22:55:38.923Z,100838.39
2022-08-28T22:58:15.108Z,100846.30
2022-08-28T23:00:50.523Z,100846.86
2022-08-28T23:03:22.332Z,100850.68
2022-08-28T23:05:54.628Z,100854.67
2022-08-28T23:08:29.637Z,100856.70
2022-08-28T23:11:07.644Z,100855.10
2022-08-28T23:13:40.205Z,100856.12
2022-08-28T23:16:12.195Z,100856.90
2022-08-28T23:19:07.528Z,100859.02
2022-08-28T23:21:39.378Z,100860.75
2022-08-28T23:24:16.717Z,100861.98
2022-08-28T23:26:49.068Z,100860.59
2022-08-28T23:29:20.962Z,100866.35
2022-08-28T23:31:53.792Z,100864.41
2022-08-28T23:34:26.472Z,100864.79
2022-08-28T23:36:59.293Z,100866.11
2022-08-28T23:39:32.783Z,100868.05
2022-08-28T23:42:07.339Z,100869.05
2022-08-28T23:44:39.511Z,100865.49
2022-08-28T23:47:14.635Z,100864.59
2022-08-28T23:49:46.585Z,100864.65
2022-08-28T23:52:19.334Z,100863.80
2022-08-28T23:54:52.661Z,100863.20
2022-08-28T23:57:25.142Z,100860.05
2022-08-28T23:59:57.105Z,100857.89
